Time;durP1;ratioP1;P1;durP2;ratioP2;P2;SDS_P1;SDS_P2;PMS_P1;PMS_P2;Temp;Humidity;BMP_temperature;BMP_pressure;BME280_temperature;BME280_humidity;BME280_pressure;Samples;Min_cycle;Max_cycle;Signal;HPM_P1;HPM_P2
2023/09/30 00:02:04;;;;;;;12.45;3.75;;;;;;;-145.50;100.00;65435.88;5047103;28;20067;-72
2023/09/30 00:04:31;;;;;;;10.35;3.80;;;;;;;-145.50;100.00;65435.88;5047833;28;20723;-72
2023/09/30 00:06:57;;;;;;;8.18;3.50;;;;;;;-145.50;100.00;65435.88;5037923;28;20049;-72
2023/09/30 00:09:24;;;;;;;7.85;2.85;;;;;;;-145.50;100.00;65435.88;5046410;28;20061;-73
2023/09/30 00:11:51;;;;;;;14.40;4.55;;;;;;;-145.50;100.00;65435.88;5036712;28;20059;-72
2023/09/30 00:14:17;;;;;;;12.40;3.70;;;;;;;-145.50;100.00;65435.88;5052099;28;20056;-73
2023/09/30 00:16:44;;;;;;;17.17;4.07;;;;;;;-145.50;100.00;65435.88;5048458;28;20087;-72
2023/09/30 00:19:11;;;;;;;11.38;3.45;;;;;;;-145.50;100.00;65435.88;5045620;28;20078;-73
2023/09/30 00:21:37;;;;;;;10.55;3.97;;;;;;;-145.50;100.00;65435.88;5053797;28;20053;-72
2023/09/30 00:24:04;;;;;;;7.72;3.50;;;;;;;-145.50;100.00;65435.88;5046136;28;20087;-73
2023/09/30 00:26:31;;;;;;;13.18;3.63;;;;;;;-145.50;100.00;65435.88;5051823;28;20060;-72
2023/09/30 00:28:57;;;;;;;9.90;3.80;;;;;;;-145.50;100.00;65435.88;5055502;28;20113;-73
2023/09/30 00:31:24;;;;;;;14.55;3.75;;;;;;;-145.50;100.00;65435.88;5049206;28;20056;-73
2023/09/30 00:33:51;;;;;;;9.57;3.67;;;;;;;-145.50;100.00;65435.88;5056838;28;20087;-72
2023/09/30 00:36:17;;;;;;;11.73;3.42;;;;;;;-145.50;100.00;65435.88;5043449;28;20060;-73
2023/09/30 00:38:44;;;;;;;10.85;3.88;;;;;;;-145.50;100.00;65435.88;5045549;28;20044;-72
2023/09/30 00:41:10;;;;;;;11.07;3.65;;;;;;;-145.50;100.00;65435.88;5042420;28;20084;-72
2023/09/30 00:43:37;;;;;;;11.68;3.08;;;;;;;-145.50;100.00;65435.88;5046650;28;20068;-72
2023/09/30 00:46:13;;;;;;;11.98;3.75;;;;;;;-145.50;100.00;65435.88;5049348;28;20063;-72
2023/09/30 00:48:40;;;;;;;10.98;3.80;;;;;;;-145.50;100.00;65435.88;5036023;28;20076;-72
2023/09/30 00:51:07;;;;;;;9.02;3.33;;;;;;;-145.50;100.00;65435.88;5052624;28;20505;-72
2023/09/30 00:53:33;;;;;;;10.75;3.50;;;;;;;-145.50;100.00;65435.88;5038023;28;20150;-72
2023/09/30 00:56:00;;;;;;;8.98;3.55;;;;;;;-145.50;100.00;65435.88;5050318;28;20056;-73
2023/09/30 00:58:28;;;;;;;10.85;3.65;;;;;;;-145.50;100.00;65435.88;5039565;28;20478;-72
2023/09/30 01:00:56;;;;;;;9.70;3.50;;;;;;;-145.50;100.00;65435.88;5044781;28;20738;-72
2023/09/30 01:03:24;;;;;;;9.13;3.55;;;;;;;-145.50;100.00;65435.88;5047012;28;20477;-73
2023/09/30 01:05:51;;;;;;;10.38;3.42;;;;;;;-145.50;100.00;65435.88;5037945;28;20057;-73
2023/09/30 01:08:19;;;;;;;8.85;3.38;;;;;;;-145.50;100.00;65435.88;5044430;28;20167;-72
2023/09/30 01:10:46;;;;;;;12.70;3.38;;;;;;;-145.50;100.00;65435.88;5036485;28;20052;-73
2023/09/30 01:13:13;;;;;;;10.05;3.45;;;;;;;-145.50;100.00;65435.88;5046463;28;20440;-72
2023/09/30 01:15:39;;;;;;;9.75;4.20;;;;;;;-145.50;100.00;65435.88;5037621;28;20248;-72
2023/09/30 01:18:06;;;;;;;9.27;3.25;;;;;;;-145.50;100.00;65435.88;5046871;28;20051;-72
2023/09/30 01:20:33;;;;;;;8.45;3.28;;;;;;;-145.50;100.00;65435.88;5044597;28;20135;-72
2023/09/30 01:23:01;;;;;;;11.95;4.35;;;;;;;-145.50;100.00;65435.88;5034295;28;20144;-72
2023/09/30 01:25:27;;;;;;;9.65;3.70;;;;;;;-145.50;100.00;65435.88;5043631;28;20622;-72
2023/09/30 01:27:54;;;;;;;9.90;3.72;;;;;;;-145.50;100.00;65435.88;5045125;28;20052;-72
2023/09/30 01:30:22;;;;;;;13.65;4.00;;;;;;;-145.50;100.00;65435.88;5050332;28;20048;-72
2023/09/30 01:32:48;;;;;;;9.95;3.65;;;;;;;-145.50;100.00;65435.88;5043243;28;20498;-73
2023/09/30 01:35:15;;;;;;;14.70;3.90;;;;;;;-145.50;100.00;65435.88;5036036;28;20486;-72
2023/09/30 01:37:42;;;;;;;11.15;4.07;;;;;;;-145.50;100.00;65435.88;5046706;28;20049;-72
2023/09/30 01:40:11;;;;;;;10.70;3.78;;;;;;;-145.50;100.00;65435.88;5050363;28;20136;-72
2023/09/30 01:42:38;;;;;;;11.82;4.50;;;;;;;-145.50;100.00;65435.88;5043192;28;20110;-72
2023/09/30 01:45:05;;;;;;;10.68;3.78;;;;;;;-145.50;100.00;65435.88;5049658;28;20061;-72
2023/09/30 01:47:32;;;;;;;10.48;4.22;;;;;;;-145.50;100.00;65435.88;5038802;28;20067;-73
2023/09/30 01:49:59;;;;;;;9.75;4.05;;;;;;;-145.50;100.00;65435.88;5041445;28;20084;-72
2023/09/30 01:52:25;;;;;;;13.40;4.28;;;;;;;-145.50;100.00;65435.88;5042229;28;20079;-73
2023/09/30 01:54:52;;;;;;;11.43;4.15;;;;;;;-145.50;100.00;65435.88;5045918;28;20292;-72
2023/09/30 01:57:19;;;;;;;12.35;5.30;;;;;;;-145.50;100.00;65435.88;5050551;28;20061;-73
2023/09/30 01:59:45;;;;;;;10.02;3.72;;;;;;;-145.50;100.00;65435.88;5050616;28;20117;-73
2023/09/30 02:02:11;;;;;;;15.43;4.05;;;;;;;-145.50;100.00;65435.88;5044178;28;20354;-72
2023/09/30 02:04:38;;;;;;;12.30;4.05;;;;;;;-145.50;100.00;65435.88;5044694;28;20139;-73
2023/09/30 02:07:05;;;;;;;10.15;4.15;;;;;;;-145.50;100.00;65435.88;5049024;28;20080;-72
2023/09/30 02:09:31;;;;;;;11.60;4.38;;;;;;;-145.50;100.00;65435.88;5039923;28;20506;-73
2023/09/30 02:11:58;;;;;;;9.13;3.50;;;;;;;-145.50;100.00;65435.88;5058252;28;20049;-72
2023/09/30 02:14:25;;;;;;;10.25;4.35;;;;;;;-145.50;100.00;65435.88;5041858;28;20072;-72
2023/09/30 02:16:51;;;;;;;12.18;4.20;;;;;;;-145.50;100.00;65435.88;5050944;28;20365;-73
2023/09/30 02:19:19;;;;;;;13.93;4.22;;;;;;;-145.50;100.00;65435.88;5060372;28;20048;-73
2023/09/30 02:21:46;;;;;;;11.00;3.80;;;;;;;-145.50;100.00;65435.88;5069410;28;20052;-73
2023/09/30 02:24:12;;;;;;;8.57;3.15;;;;;;;-145.50;100.00;65435.88;5068206;28;20103;-72
2023/09/30 02:26:39;;;;;;;8.18;3.15;;;;;;;-145.50;100.00;65435.88;5043469;28;20615;-71
2023/09/30 02:29:07;;;;;;;10.90;4.20;;;;;;;-145.50;100.00;65435.88;5047086;28;20056;-72
2023/09/30 02:31:34;;;;;;;6.93;3.10;;;;;;;-145.50;100.00;65435.88;5040100;28;20316;-72
2023/09/30 02:34:02;;;;;;;8.98;3.88;;;;;;;-145.50;100.00;65435.88;5044948;28;20424;-72
2023/09/30 02:36:28;;;;;;;6.90;2.83;;;;;;;-145.50;100.00;65435.88;5041772;28;20699;-73
2023/09/30 02:38:55;;;;;;;8.38;2.85;;;;;;;-145.50;100.00;65435.88;5050044;28;20052;-72
2023/09/30 02:41:21;;;;;;;8.13;3.65;;;;;;;-145.50;100.00;65435.88;5050685;28;20122;-71
2023/09/30 02:43:48;;;;;;;10.73;3.65;;;;;;;-145.50;100.00;65435.88;5052248;28;20048;-72
2023/09/30 02:46:15;;;;;;;9.18;3.67;;;;;;;-145.50;100.00;65435.88;5044852;28;20087;-73
2023/09/30 02:48:41;;;;;;;11.05;3.97;;;;;;;-145.50;100.00;65435.88;5036079;28;20052;-73
2023/09/30 02:51:11;;;;;;;9.88;3.78;;;;;;;-145.50;100.00;65435.88;5047291;28;20045;-73
2023/09/30 02:53:38;;;;;;;13.32;4.00;;;;;;;-145.50;100.00;65435.88;5045977;28;20045;-71
2023/09/30 02:56:05;;;;;;;9.40;4.18;;;;;;;-145.50;100.00;65435.88;5039752;28;20057;-72
2023/09/30 02:58:31;;;;;;;12.13;4.45;;;;;;;-145.50;100.00;65435.88;5037756;28;20106;-72
2023/09/30 03:00:59;;;;;;;11.27;5.03;;;;;;;-145.50;100.00;65435.88;5039968;28;20044;-72
2023/09/30 03:03:27;;;;;;;10.82;4.53;;;;;;;-145.50;100.00;65435.88;5050526;28;20506;-72
2023/09/30 03:05:54;;;;;;;12.00;4.90;;;;;;;-145.50;100.00;65435.88;5041601;28;20052;-72
2023/09/30 03:08:22;;;;;;;12.60;5.05;;;;;;;-145.50;100.00;65435.88;5050296;28;20393;-73
2023/09/30 03:10:48;;;;;;;11.87;4.73;;;;;;;-145.50;100.00;65435.88;5049472;28;20056;-73
2023/09/30 03:13:15;;;;;;;11.75;4.82;;;;;;;-145.50;100.00;65435.88;5044467;28;20051;-72
2023/09/30 03:15:41;;;;;;;12.40;4.45;;;;;;;-145.50;100.00;65435.88;5045892;28;20714;-72
2023/09/30 03:18:08;;;;;;;9.88;4.30;;;;;;;-145.50;100.00;65435.88;5053704;28;20398;-72
2023/09/30 03:20:36;;;;;;;10.00;4.93;;;;;;;-145.50;100.00;65435.88;5034105;28;20198;-72
2023/09/30 03:23:04;;;;;;;11.40;4.25;;;;;;;-145.50;100.00;65435.88;5044337;28;20056;-72
2023/09/30 03:25:31;;;;;;;10.65;4.63;;;;;;;-145.50;100.00;65435.88;5048956;28;20080;-73
2023/09/30 03:27:57;;;;;;;16.25;5.50;;;;;;;-145.50;100.00;65435.88;5049255;28;20049;-72
2023/09/30 03:30:24;;;;;;;11.07;4.18;;;;;;;-145.50;100.00;65435.88;5049167;28;20048;-72
2023/09/30 03:32:51;;;;;;;12.77;5.00;;;;;;;-145.50;100.00;65435.88;5045827;28;20218;-73
2023/09/30 03:35:17;;;;;;;13.68;5.05;;;;;;;-145.50;100.00;65435.88;5043301;28;20048;-72
2023/09/30 03:37:46;;;;;;;11.65;4.35;;;;;;;-145.50;100.00;65435.88;5051040;28;20041;-71
2023/09/30 03:40:14;;;;;;;;;;;;;;;-145.50;100.00;65435.88;5049813;28;20374;-73
2023/09/30 03:42:44;;;;;;;9.98;3.85;;;;;;;-145.50;100.00;65435.88;5038003;28;19934;-73
2023/09/30 03:45:13;;;;;;;15.90;5.25;;;;;;;-145.50;100.00;65435.88;5048110;28;20056;-72
2023/09/30 03:47:41;;;;;;;9.40;4.63;;;;;;;-145.50;100.00;65435.88;5039867;28;20044;-72
2023/09/30 03:50:14;;;;;;;10.55;4.97;;;;;;;-145.50;100.00;65435.88;5051301;28;20684;-72
2023/09/30 03:52:44;;;;;;;16.10;4.97;;;;;;;-145.50;100.00;65435.88;5049236;28;20050;-72
2023/09/30 03:55:15;;;;;;;10.82;4.38;;;;;;;-145.50;100.00;65435.88;5045920;28;20128;-72
2023/09/30 03:57:42;;;;;;;13.38;6.15;;;;;;;-145.50;100.00;65435.88;5033998;28;20095;-72
2023/09/30 04:00:18;;;;;;;10.85;6.05;;;;;;;-145.50;100.00;65435.88;5046290;28;20055;-72
2023/09/30 04:02:49;;;;;;;10.10;4.88;;;;;;;-145.50;100.00;65435.88;5052244;28;20063;-72
2023/09/30 04:05:17;;;;;;;11.77;5.80;;;;;;;-145.50;100.00;65435.88;5046790;28;20084;-72
2023/09/30 04:07:44;;;;;;;12.45;5.68;;;;;;;-145.50;100.00;65435.88;5058723;28;20059;-72
2023/09/30 04:10:11;;;;;;;12.95;6.32;;;;;;;-145.50;100.00;65435.88;5046487;28;20055;-72
2023/09/30 04:12:37;;;;;;;9.68;5.45;;;;;;;-145.50;100.00;65435.88;5039189;28;20285;-72
2023/09/30 04:15:04;;;;;;;13.95;5.38;;;;;;;-145.50;100.00;65435.88;5044666;28;20487;-73
2023/09/30 04:17:32;;;;;;;11.98;5.65;;;;;;;-145.50;100.00;65435.88;5047782;28;20268;-72
2023/09/30 04:19:58;;;;;;;11.43;5.50;;;;;;;-145.50;100.00;65435.88;5052458;28;20058;-72
2023/09/30 04:22:28;;;;;;;11.82;4.82;;;;;;;-145.50;100.00;65435.88;5040692;28;20048;-73
2023/09/30 04:24:55;;;;;;;13.98;6.00;;;;;;;-145.50;100.00;65435.88;5040518;28;20059;-72
2023/09/30 04:27:22;;;;;;;7.90;4.50;;;;;;;-145.50;100.00;65435.88;5035529;28;20076;-73
2023/09/30 04:29:49;;;;;;;13.88;5.78;;;;;;;-145.50;100.00;65435.88;5053691;28;20551;-73
2023/09/30 04:32:16;;;;;;;13.35;5.93;;;;;;;-145.50;100.00;65435.88;5048127;28;20513;-73
2023/09/30 04:34:43;;;;;;;10.73;5.65;;;;;;;-145.50;100.00;65435.88;5039907;28;20140;-72
2023/09/30 04:37:13;;;;;;;13.68;5.97;;;;;;;-145.50;100.00;65435.88;5047849;28;20582;-72
2023/09/30 04:39:40;;;;;;;10.75;4.75;;;;;;;-145.50;100.00;65435.88;5033977;28;20049;-72
2023/09/30 04:42:10;;;;;;;11.55;5.78;;;;;;;-145.50;100.00;65435.88;5046102;28;20764;-72
2023/09/30 04:44:38;;;;;;;12.15;5.57;;;;;;;-145.50;100.00;65435.88;5046097;28;20049;-72
2023/09/30 04:47:05;;;;;;;10.00;5.00;;;;;;;-145.50;100.00;65435.88;5047002;28;20084;-72
2023/09/30 04:49:31;;;;;;;10.85;5.55;;;;;;;-145.50;100.00;65435.88;5050460;28;20554;-72
2023/09/30 04:51:58;;;;;;;12.63;5.82;;;;;;;-145.50;100.00;65435.88;5033546;28;20490;-72
2023/09/30 04:54:25;;;;;;;12.95;5.93;;;;;;;-145.50;100.00;65435.88;5041913;28;20053;-71
2023/09/30 04:56:52;;;;;;;11.32;5.90;;;;;;;-145.50;100.00;65435.88;5046273;28;20048;-72
2023/09/30 04:59:18;;;;;;;10.85;5.88;;;;;;;-145.50;100.00;65435.88;5046573;28;20391;-72
2023/09/30 05:01:45;;;;;;;12.98;6.28;;;;;;;-145.50;100.00;65435.88;5052452;28;20094;-72
2023/09/30 05:04:12;;;;;;;12.68;6.85;;;;;;;-145.50;100.00;65435.88;5051023;28;20110;-72
2023/09/30 05:06:39;;;;;;;13.70;6.75;;;;;;;-145.50;100.00;65435.88;5040762;28;20048;-73
2023/09/30 05:09:07;;;;;;;11.38;6.47;;;;;;;-145.50;100.00;65435.88;5040612;28;20106;-72
2023/09/30 05:11:35;;;;;;;10.13;6.47;;;;;;;-145.50;100.00;65435.88;5046909;28;20063;-73
2023/09/30 05:14:05;;;;;;;13.82;6.38;;;;;;;-145.50;100.00;65435.88;5042592;28;20053;-72
2023/09/30 05:16:31;;;;;;;13.00;6.53;;;;;;;-145.50;100.00;65435.88;5044277;28;20135;-72
2023/09/30 05:18:58;;;;;;;11.23;6.78;;;;;;;-145.50;100.00;65435.88;5048422;28;20040;-73
2023/09/30 05:21:25;;;;;;;15.55;6.80;;;;;;;-145.50;100.00;65435.88;5044692;28;20114;-72
2023/09/30 05:23:52;;;;;;;9.95;6.15;;;;;;;-145.50;100.00;65435.88;5047737;28;20052;-71
2023/09/30 05:26:19;;;;;;;14.65;8.05;;;;;;;-145.50;100.00;65435.88;5039197;28;20056;-73
2023/09/30 05:28:46;;;;;;;13.95;7.15;;;;;;;-145.50;100.00;65435.88;5043826;28;20623;-73
2023/09/30 05:31:12;;;;;;;14.75;7.13;;;;;;;-145.50;100.00;65435.88;5039323;28;20600;-72
2023/09/30 05:33:39;;;;;;;10.25;6.80;;;;;;;-145.50;100.00;65435.88;5045020;28;20155;-72
2023/09/30 05:36:06;;;;;;;11.80;7.28;;;;;;;-145.50;100.00;65435.88;5034732;28;20507;-72
2023/09/30 05:38:32;;;;;;;10.80;6.38;;;;;;;-145.50;100.00;65435.88;5042103;28;20080;-71
2023/09/30 05:40:59;;;;;;;13.70;7.22;;;;;;;-145.50;100.00;65435.88;5044445;28;20064;-72
2023/09/30 05:43:27;;;;;;;14.63;6.40;;;;;;;-145.50;100.00;65435.88;5042351;28;20041;-72
2023/09/30 05:45:54;;;;;;;10.50;7.35;;;;;;;-145.50;100.00;65435.88;5052093;28;20040;-72
2023/09/30 05:48:24;;;;;;;10.55;6.32;;;;;;;-145.50;100.00;65435.88;5034332;28;20427;-72
2023/09/30 05:50:50;;;;;;;14.15;6.50;;;;;;;-145.50;100.00;65435.88;5043625;28;20080;-72
2023/09/30 05:53:17;;;;;;;11.07;6.68;;;;;;;-145.50;100.00;65435.88;5048709;28;20498;-72
2023/09/30 05:55:45;;;;;;;14.25;6.30;;;;;;;-145.50;100.00;65435.88;5034569;28;20072;-72
2023/09/30 05:58:14;;;;;;;11.95;7.18;;;;;;;-145.50;100.00;65435.88;5043618;28;20118;-72
2023/09/30 06:00:41;;;;;;;12.52;6.95;;;;;;;-145.50;100.00;65435.88;5035125;28;20062;-72
2023/09/30 06:03:10;;;;;;;16.00;7.57;;;;;;;-145.50;100.00;65435.88;5041153;28;20180;-72
2023/09/30 06:05:41;;;;;;;13.25;7.68;;;;;;;-145.50;100.00;65435.88;5040027;28;20476;-72
2023/09/30 06:08:16;;;;;;;13.60;7.38;;;;;;;-145.50;100.00;65435.88;5050073;28;20068;-72
2023/09/30 06:10:44;;;;;;;14.65;7.47;;;;;;;-145.50;100.00;65435.88;5053170;28;20051;-73
2023/09/30 06:13:11;;;;;;;11.95;7.15;;;;;;;-145.50;100.00;65435.88;5048284;28;20052;-72
2023/09/30 06:15:43;;;;;;;11.27;6.95;;;;;;;-145.50;100.00;65435.88;5047628;28;20068;-73
2023/09/30 06:18:13;;;;;;;16.10;7.90;;;;;;;-145.50;100.00;65435.88;5040557;28;20127;-73
2023/09/30 06:20:41;;;;;;;13.00;7.60;;;;;;;-145.50;100.00;65435.88;5047377;28;20568;-73
2023/09/30 06:23:09;;;;;;;12.20;7.67;;;;;;;-145.50;100.00;65435.88;5042347;28;20105;-72
2023/09/30 06:25:37;;;;;;;12.68;7.90;;;;;;;-145.50;100.00;65435.88;5034948;28;20358;-72
2023/09/30 06:28:04;;;;;;;15.05;8.38;;;;;;;-145.50;100.00;65435.88;5047818;28;20134;-74
2023/09/30 06:30:33;;;;;;;12.57;7.18;;;;;;;-145.50;100.00;65435.88;5040338;28;20249;-72
2023/09/30 06:33:01;;;;;;;14.43;8.02;;;;;;;-145.50;100.00;65435.88;5045375;28;20554;-72
2023/09/30 06:35:30;;;;;;;11.95;7.78;;;;;;;-145.50;100.00;65435.88;5033866;28;20048;-72
2023/09/30 06:37:56;;;;;;;14.40;7.88;;;;;;;-145.50;100.00;65435.88;5046391;28;20091;-72
2023/09/30 06:40:23;;;;;;;16.42;7.97;;;;;;;-145.50;100.00;65435.88;5040224;28;20136;-73
2023/09/30 06:42:54;;;;;;;13.60;7.78;;;;;;;-145.50;100.00;65435.88;5044263;28;20480;-72
2023/09/30 06:45:21;;;;;;;14.75;8.30;;;;;;;-145.50;100.00;65435.88;5050117;28;20044;-74
2023/09/30 06:47:49;;;;;;;15.27;8.18;;;;;;;-145.50;100.00;65435.88;5038980;28;20052;-72
2023/09/30 06:50:16;;;;;;;13.10;8.20;;;;;;;-145.50;100.00;65435.88;5055869;28;20476;-72
2023/09/30 06:52:49;;;;;;;18.15;9.32;;;;;;;-145.50;100.00;65435.88;5050509;28;20052;-72
2023/09/30 06:55:16;;;;;;;14.63;8.30;;;;;;;-145.50;100.00;65435.88;5058372;28;20163;-72
2023/09/30 06:57:43;;;;;;;15.50;8.68;;;;;;;-145.50;100.00;65435.88;5055604;28;20052;-71
2023/09/30 07:00:12;;;;;;;14.05;8.27;;;;;;;-145.50;100.00;65435.88;5049709;28;20048;-73
2023/09/30 07:02:40;;;;;;;18.23;9.30;;;;;;;-145.50;100.00;65435.88;5052839;28;20080;-72
2023/09/30 07:05:08;;;;;;;13.27;8.88;;;;;;;-145.50;100.00;65435.88;5043884;28;20076;-72
2023/09/30 07:07:35;;;;;;;16.58;8.98;;;;;;;-145.50;100.00;65435.88;5052965;28;20588;-72
2023/09/30 07:10:06;;;;;;;19.33;9.23;;;;;;;-145.50;100.00;65435.88;5048707;28;20056;-72
2023/09/30 07:12:35;;;;;;;15.70;9.20;;;;;;;-145.50;100.00;65435.88;5053512;28;20145;-72
2023/09/30 07:15:04;;;;;;;17.55;9.68;;;;;;;-145.50;100.00;65435.88;5047202;28;20074;-72
2023/09/30 07:17:31;;;;;;;21.13;9.57;;;;;;;-145.50;100.00;65435.88;5041408;28;20048;-71
2023/09/30 07:19:57;;;;;;;15.20;9.85;;;;;;;-145.50;100.00;65435.88;5046604;28;20051;-72
2023/09/30 07:22:24;;;;;;;14.98;9.75;;;;;;;-145.50;100.00;65435.88;5044790;28;20048;-73
2023/09/30 07:25:09;;;;;;;17.90;10.50;;;;;;;-145.50;100.00;65435.88;5052575;28;20049;-72
2023/09/30 07:27:36;;;;;;;18.45;10.27;;;;;;;-145.50;100.00;65435.88;5038866;28;20171;-73
2023/09/30 07:30:05;;;;;;;16.02;10.50;;;;;;;-145.50;100.00;65435.88;5046576;28;20614;-73
2023/09/30 07:32:33;;;;;;;15.90;10.40;;;;;;;-145.50;100.00;65435.88;5049805;28;20428;-72
2023/09/30 07:34:59;;;;;;;18.35;10.50;;;;;;;-145.50;100.00;65435.88;5044046;28;20048;-72
2023/09/30 07:37:28;;;;;;;17.95;10.25;;;;;;;-145.50;100.00;65435.88;5052658;28;20133;-72
2023/09/30 07:39:55;;;;;;;22.10;11.27;;;;;;;-145.50;100.00;65435.88;5042004;28;20052;-73
2023/09/30 07:42:22;;;;;;;17.92;9.93;;;;;;;-145.50;100.00;65435.88;5045032;28;20072;-73
2023/09/30 07:44:49;;;;;;;19.45;11.98;;;;;;;-145.50;100.00;65435.88;5040021;28;20064;-72
2023/09/30 07:47:17;;;;;;;22.85;11.77;;;;;;;-145.50;100.00;65435.88;5046158;28;20106;-72
2023/09/30 07:49:43;;;;;;;20.70;12.20;;;;;;;-145.50;100.00;65435.88;5051726;28;20056;-72
2023/09/30 07:52:10;;;;;;;25.85;12.25;;;;;;;-145.50;100.00;65435.88;5042470;28;20057;-72
2023/09/30 07:54:37;;;;;;;20.70;11.98;;;;;;;-145.50;100.00;65435.88;5051732;28;20076;-73
2023/09/30 07:57:04;;;;;;;24.90;12.13;;;;;;;-145.50;100.00;65435.88;5038307;28;20056;-73
2023/09/30 07:59:33;;;;;;;24.35;11.25;;;;;;;-145.50;100.00;65435.88;5046924;28;20485;-72
2023/09/30 08:02:01;;;;;;;26.33;10.88;;;;;;;-145.50;100.00;65435.88;5044157;28;20420;-71
2023/09/30 08:04:29;;;;;;;20.70;11.63;;;;;;;-145.50;100.00;65435.88;5056290;28;20045;-72
2023/09/30 08:06:56;;;;;;;22.13;11.43;;;;;;;-145.50;100.00;65435.88;5058006;28;20084;-73
2023/09/30 08:09:23;;;;;;;20.20;11.18;;;;;;;-145.50;100.00;65435.88;5039678;28;20053;-72
2023/09/30 08:11:53;;;;;;;28.23;11.57;;;;;;;-145.50;100.00;65435.88;5044610;28;20049;-72
2023/09/30 08:14:20;;;;;;;20.50;12.30;;;;;;;-145.50;100.00;65435.88;5047971;28;20057;-71
2023/09/30 08:16:49;;;;;;;22.00;11.68;;;;;;;-145.50;100.00;65435.88;5058495;28;20873;-71
2023/09/30 08:19:16;;;;;;;24.63;11.30;;;;;;;-145.50;100.00;65435.88;5054156;28;20049;-71
2023/09/30 08:21:43;;;;;;;22.35;10.35;;;;;;;-145.50;100.00;65435.88;5055535;28;20626;-72
2023/09/30 08:24:10;;;;;;;22.25;10.38;;;;;;;-145.50;100.00;65435.88;5055198;28;20048;-73
2023/09/30 08:26:40;;;;;;;25.20;12.00;;;;;;;-145.50;100.00;65435.88;5050509;28;20044;-73
2023/09/30 08:29:07;;;;;;;21.90;11.20;;;;;;;-145.50;100.00;65435.88;5062428;28;20080;-73
2023/09/30 08:31:37;;;;;;;26.83;10.95;;;;;;;-145.50;100.00;65435.88;5050252;28;20059;-72
2023/09/30 08:34:04;;;;;;;22.08;11.90;;;;;;;-145.50;100.00;65435.88;5057711;28;20135;-72
2023/09/30 08:36:31;;;;;;;26.83;11.32;;;;;;;-145.50;100.00;65435.88;5050366;28;20059;-73
2023/09/30 08:38:58;;;;;;;26.90;10.82;;;;;;;-145.50;100.00;65435.88;5059151;28;20772;-72
2023/09/30 08:41:33;;;;;;;22.60;11.63;;;;;;;-145.50;100.00;65435.88;5052805;28;20395;-71
2023/09/30 08:44:04;;;;;;;22.50;10.70;;;;;;;-145.50;100.00;65435.88;5051030;28;20320;-73
2023/09/30 08:46:33;;;;;;;20.02;11.38;;;;;;;-145.50;100.00;65435.88;5061101;28;20117;-72
2023/09/30 08:49:03;;;;;;;19.85;10.95;;;;;;;-145.50;100.00;65435.88;5051593;28;20053;-72
2023/09/30 08:51:30;;;;;;;22.60;11.13;;;;;;;-145.50;100.00;65435.88;5055758;28;20585;-71
2023/09/30 08:53:58;;;;;;;18.85;10.57;;;;;;;-145.50;100.00;65435.88;5043272;28;20037;-72
2023/09/30 08:56:32;;;;;;;21.20;11.13;;;;;;;-145.50;100.00;65435.88;5042474;28;20468;-72
2023/09/30 08:59:01;;;;;;;20.05;9.90;;;;;;;-145.50;100.00;65435.88;5052499;28;20417;-72
2023/09/30 09:01:28;;;;;;;;;;;;;;;-145.50;100.00;65435.88;5044428;28;20080;-72
2023/09/30 09:03:55;;;;;;;26.50;11.20;;;;;;;-145.50;100.00;65435.88;5045937;28;20670;-71
2023/09/30 09:06:23;;;;;;;20.42;11.25;;;;;;;-145.50;100.00;65435.88;5041639;28;20059;-72
2023/09/30 09:08:51;;;;;;;21.13;10.80;;;;;;;-145.50;100.00;65435.88;5040209;28;20060;-72
2023/09/30 09:11:18;;;;;;;25.63;11.93;;;;;;;-145.50;100.00;65435.88;5037345;28;20424;-72
2023/09/30 09:13:56;;;;;;;19.85;9.77;;;;;;;-145.50;100.00;65435.88;5049535;28;20114;-72
2023/09/30 09:16:23;;;;;;;20.75;10.40;;;;;;;-145.50;100.00;65435.88;5044322;28;20053;-71
2023/09/30 09:18:50;;;;;;;18.37;9.70;;;;;;;-145.50;100.00;65435.88;5042912;28;20151;-72
2023/09/30 09:21:22;;;;;;;20.98;9.10;;;;;;;-145.50;100.00;65435.88;5055470;28;20653;-71
2023/09/30 09:23:51;;;;;;;20.48;10.38;;;;;;;-145.50;100.00;65435.88;5037896;28;20045;-72
2023/09/30 09:26:26;;;;;;;19.83;9.38;;;;;;;-145.50;100.00;65435.88;5041868;28;20114;-71
2023/09/30 09:28:57;;;;;;;24.02;9.43;;;;;;;-145.50;100.00;65435.88;5047869;28;20079;-72
2023/09/30 09:31:29;;;;;;;18.38;9.57;;;;;;;-145.50;100.00;65435.88;5042953;28;20052;-71
2023/09/30 09:33:57;;;;;;;25.35;9.18;;;;;;;-145.50;100.00;65435.88;5047685;28;20531;-73
2023/09/30 09:36:44;;;;;;;21.23;9.20;;;;;;;-145.50;100.00;65435.88;5040081;28;20068;-72
2023/09/30 09:39:15;;;;;;;18.50;9.80;;;;;;;-145.50;100.00;65435.88;5042807;28;20096;-71
2023/09/30 09:41:56;;;;;;;17.80;8.55;;;;;;;-145.50;100.00;65435.88;5041967;28;20063;-72
2023/09/30 09:44:25;;;;;;;21.90;8.93;;;;;;;-145.50;100.00;65435.88;5046439;28;20048;-72
2023/09/30 09:46:51;;;;;;;16.67;8.27;;;;;;;-145.50;100.00;65435.88;5040419;28;20114;-73
2023/09/30 09:49:20;;;;;;;19.67;8.35;;;;;;;-145.50;100.00;65435.88;5047323;28;20051;-71
2023/09/30 09:51:48;;;;;;;16.58;7.30;;;;;;;-145.50;100.00;65435.88;5038664;28;20084;-72
2023/09/30 09:54:15;;;;;;;;;;;;;;;-145.50;100.00;65435.88;5040283;28;20693;-72
2023/09/30 09:56:45;;;;;;;16.77;8.38;;;;;;;-145.50;100.00;65435.88;5042349;28;20658;-73
2023/09/30 09:59:13;;;;;;;18.10;8.27;;;;;;;-145.50;100.00;65435.88;5039737;28;20102;-71
2023/09/30 10:01:42;;;;;;;16.83;7.97;;;;;;;-145.50;100.00;65435.88;5055937;28;20415;-72
2023/09/30 10:04:11;;;;;;;14.85;7.32;;;;;;;-145.50;100.00;65435.88;5040980;28;20060;-72
2023/09/30 10:06:41;;;;;;;17.33;7.97;;;;;;;-145.50;100.00;65435.88;5040903;28;20476;-72
2023/09/30 10:09:10;;;;;;;15.75;8.00;;;;;;;-145.50;100.00;65435.88;5030319;28;20944;-72
2023/09/30 10:11:39;;;;;;;17.13;7.50;;;;;;;-145.50;100.00;65435.88;5053386;28;20056;-72
2023/09/30 10:14:12;;;;;;;19.10;7.75;;;;;;;-145.50;100.00;65435.88;5047570;28;20155;-72
2023/09/30 10:16:46;;;;;;;19.85;8.80;;;;;;;-145.50;100.00;65435.88;5039480;28;20141;-72
2023/09/30 10:19:22;;;;;;;17.67;7.80;;;;;;;-145.50;100.00;65435.88;5037459;28;20049;-72
2023/09/30 10:22:21;;;;;;;17.60;7.38;;;;;;;-145.50;100.00;65435.88;5034943;28;20062;-72
2023/09/30 10:24:53;;;;;;;15.10;7.00;;;;;;;-145.50;100.00;65435.88;5056182;28;20481;-72
2023/09/30 10:27:29;;;;;;;19.17;7.43;;;;;;;-145.50;100.00;65435.88;5045448;28;20567;-72
2023/09/30 10:30:09;;;;;;;19.83;7.07;;;;;;;-145.50;100.00;65435.88;5051638;28;20044;-72
2023/09/30 10:32:59;;;;;;;19.63;6.82;;;;;;;-145.50;100.00;65435.88;5044090;28;20048;-72
2023/09/30 10:35:26;;;;;;;13.05;6.70;;;;;;;-145.50;100.00;65435.88;5042313;28;20049;-72
2023/09/30 10:38:21;;;;;;;13.63;5.55;;;;;;;-145.50;100.00;65435.88;5038783;28;20165;-73
2023/09/30 10:40:48;;;;;;;19.40;6.07;;;;;;;-145.50;100.00;65435.88;5054618;28;20802;-72
2023/09/30 10:43:39;;;;;;;16.33;4.90;;;;;;;-145.50;100.00;65435.88;5054291;28;20049;-72
2023/09/30 10:46:26;;;;;;;15.43;5.93;;;;;;;-145.50;100.00;65435.88;5032778;28;21270;-73
2023/09/30 10:48:53;;;;;;;13.63;5.22;;;;;;;-145.50;100.00;65435.88;5044167;28;20044;-72
2023/09/30 10:51:23;;;;;;;12.38;5.10;;;;;;;-145.50;100.00;65435.88;5042056;28;20052;-72
2023/09/30 10:53:59;;;;;;;21.33;5.28;;;;;;;-145.50;100.00;65435.88;5048744;28;20095;-72
2023/09/30 10:56:32;;;;;;;15.88;4.95;;;;;;;-145.50;100.00;65435.88;5045017;28;20059;-72
2023/09/30 10:59:01;;;;;;;13.27;4.40;;;;;;;-145.50;100.00;65435.88;5053249;28;20098;-73
2023/09/30 11:01:33;;;;;;;10.85;3.92;;;;;;;-145.50;100.00;65435.88;5041259;28;20040;-72
2023/09/30 11:04:04;;;;;;;8.95;3.85;;;;;;;-145.50;100.00;65435.88;5044098;28;20052;-73
2023/09/30 11:06:33;;;;;;;10.95;4.05;;;;;;;-145.50;100.00;65435.88;5043995;28;20440;-72
2023/09/30 11:09:02;;;;;;;11.18;3.80;;;;;;;-145.50;100.00;65435.88;5052377;28;20540;-72